createdAt,value
2017-12-22T00:01:00.950Z,13.37
2017-12-22T00:03:28.411Z,13.53
2017-12-22T00:05:55.852Z,9.83
2017-12-22T00:08:23.610Z,10.47
2017-12-22T00:10:51.065Z,11.83
2017-12-22T00:13:18.517Z,13.30
2017-12-22T00:15:47.246Z,12.43
2017-12-22T00:18:14.704Z,12.33
2017-12-22T00:20:42.153Z,16.47
2017-12-22T00:23:09.932Z,18.23
2017-12-22T00:25:37.388Z,11.50
2017-12-22T00:28:07.397Z,12.30
2017-12-22T00:30:35.204Z,11.93
2017-12-22T00:33:02.670Z,12.33
2017-12-22T00:35:30.145Z,17.23
2017-12-22T00:37:57.773Z,14.10
2017-12-22T00:40:25.225Z,17.77
2017-12-22T00:42:52.700Z,14.93
2017-12-22T00:45:20.444Z,17.20
2017-12-22T00:47:47.899Z,16.63
2017-12-22T00:50:15.357Z,11.73
2017-12-22T00:52:43.175Z,11.63
2017-12-22T00:55:10.642Z,14.23
2017-12-22T00:57:38.102Z,13.83
2017-12-22T01:00:05.828Z,17.53
2017-12-22T01:02:33.297Z,15.23
2017-12-22T01:05:00.754Z,17.30
2017-12-22T01:07:29.431Z,19.00
2017-12-22T01:09:56.896Z,19.70
2017-12-22T01:12:24.357Z,21.77
2017-12-22T01:14:52.126Z,19.70
2017-12-22T01:17:25.214Z,28.30
2017-12-22T01:19:52.698Z,22.07
2017-12-22T01:22:20.636Z,23.07
2017-12-22T01:24:48.106Z,20.83
2017-12-22T01:27:15.567Z,25.70
2017-12-22T01:29:44.253Z,23.40
2017-12-22T01:32:11.721Z,22.43
2017-12-22T01:34:39.189Z,21.00
2017-12-22T01:37:08.231Z,24.33
2017-12-22T01:39:35.693Z,28.27
2017-12-22T01:42:03.144Z,24.00
2017-12-22T01:44:30.858Z,27.77
2017-12-22T01:46:58.329Z,27.67
2017-12-22T01:49:25.785Z,29.03
2017-12-22T01:51:53.529Z,29.10
2017-12-22T01:54:20.985Z,31.53
2017-12-22T01:56:48.445Z,37.73
2017-12-22T01:59:16.230Z,35.70
2017-12-22T02:01:43.682Z,34.00
2017-12-22T02:04:11.141Z,25.90
2017-12-22T02:06:38.907Z,30.60
2017-12-22T02:09:06.357Z,28.47
2017-12-22T02:11:33.810Z,35.00
2017-12-22T02:14:01.592Z,29.77
2017-12-22T02:16:29.059Z,25.90
2017-12-22T02:18:56.522Z,24.90
2017-12-22T02:21:24.245Z,28.83
2017-12-22T02:23:51.717Z,24.60
2017-12-22T02:26:19.186Z,26.03
2017-12-22T02:28:46.973Z,24.13
2017-12-22T02:31:14.809Z,22.73
2017-12-22T02:33:42.265Z,29.90
2017-12-22T02:36:10.139Z,22.67
2017-12-22T02:38:37.599Z,24.30
2017-12-22T02:41:05.057Z,29.20
2017-12-22T02:43:32.958Z,24.73
2017-12-22T02:46:00.414Z,27.43
2017-12-22T02:48:27.863Z,27.43
2017-12-22T02:50:55.657Z,29.17
2017-12-22T02:53:23.121Z,33.00
2017-12-22T02:55:50.569Z,29.47
2017-12-22T02:58:18.338Z,33.47
2017-12-22T03:00:45.797Z,32.00
2017-12-22T03:03:13.253Z,29.37
2017-12-22T03:05:40.969Z,28.93
2017-12-22T03:08:08.434Z,34.37
2017-12-22T03:10:35.904Z,24.23
2017-12-22T03:13:03.784Z,26.73
2017-12-22T03:15:31.244Z,27.27
2017-12-22T03:17:58.696Z,31.53
2017-12-22T03:20:26.704Z,29.00
2017-12-22T03:22:54.165Z,27.47
2017-12-22T03:25:21.621Z,27.03
2017-12-22T03:27:49.689Z,26.37
2017-12-22T03:30:17.145Z,26.97
2017-12-22T03:32:45.300Z,23.47
2017-12-22T03:35:13.310Z,26.00
2017-12-22T03:37:40.761Z,28.40
2017-12-22T03:40:08.233Z,23.13
2017-12-22T03:42:35.869Z,22.90
2017-12-22T03:45:03.808Z,19.17
2017-12-22T03:47:31.277Z,20.83
2017-12-22T03:49:59.293Z,19.40
2017-12-22T03:52:26.757Z,19.33
2017-12-22T03:54:54.220Z,19.30
2017-12-22T03:57:22.529Z,17.40
2017-12-22T03:59:50.000Z,22.60
2017-12-22T04:02:17.462Z,16.27
2017-12-22T04:04:45.286Z,20.13
2017-12-22T04:07:12.745Z,17.77
2017-12-22T04:09:40.204Z,17.07
2017-12-22T04:12:07.972Z,15.87
2017-12-22T04:14:35.434Z,15.20
2017-12-22T04:17:03.243Z,18.03
2017-12-22T04:19:30.961Z,18.20
2017-12-22T04:21:58.412Z,15.30
2017-12-22T04:24:25.867Z,20.33
2017-12-22T04:26:53.958Z,13.10
2017-12-22T04:29:21.415Z,14.13
2017-12-22T04:31:48.878Z,14.33
2017-12-22T04:34:17.957Z,13.83
2017-12-22T04:36:45.414Z,14.50
2017-12-22T04:39:12.877Z,11.60
2017-12-22T04:41:40.692Z,12.27
2017-12-22T04:44:08.137Z,11.77
2017-12-22T04:46:35.597Z,14.47
2017-12-22T04:49:03.561Z,10.77
2017-12-22T04:51:31.021Z,11.13
2017-12-22T04:53:58.481Z,12.73
2017-12-22T04:56:26.545Z,11.73
2017-12-22T04:58:54.014Z,14.57
2017-12-22T05:01:21.468Z,14.80
2017-12-22T05:03:49.241Z,14.77
2017-12-22T05:06:16.694Z,14.20
2017-12-22T05:08:44.161Z,17.33
2017-12-22T05:11:11.913Z,16.23
2017-12-22T05:13:39.365Z,14.10
2017-12-22T05:16:06.826Z,15.83
2017-12-22T05:18:34.609Z,14.00
2017-12-22T05:21:02.064Z,32.03
2017-12-22T05:23:29.527Z,16.20
2017-12-22T05:25:57.481Z,14.73
2017-12-22T05:35:08.425Z,8.57
2017-12-22T05:37:35.881Z,10.93
2017-12-22T05:40:03.329Z,10.73
2017-12-22T05:42:31.109Z,10.80
2017-12-22T05:44:58.564Z,11.27
2017-12-22T05:47:26.020Z,11.80
2017-12-22T05:49:53.813Z,12.90
2017-12-22T05:52:21.271Z,11.40
2017-12-22T05:54:48.734Z,12.63
2017-12-22T05:57:16.505Z,11.53
2017-12-22T05:59:43.966Z,11.47
2017-12-22T06:02:11.421Z,12.93
2017-12-22T06:04:39.190Z,9.87
2017-12-22T06:07:06.642Z,15.13
2017-12-22T06:09:34.109Z,11.23
2017-12-22T06:12:01.861Z,11.63
2017-12-22T06:14:29.312Z,11.23
2017-12-22T06:16:56.759Z,12.63
2017-12-22T06:19:24.546Z,16.07
2017-12-22T06:21:52.001Z,11.10
2017-12-22T06:24:19.460Z,11.67
2017-12-22T06:26:47.549Z,11.87
2017-12-22T06:29:15.013Z,12.00
2017-12-22T06:31:42.475Z,11.80
2017-12-22T06:34:10.224Z,18.03
2017-12-22T06:36:38.380Z,28.97
2017-12-22T06:39:05.829Z,13.70
2017-12-22T06:41:33.660Z,15.63
2017-12-22T06:44:01.113Z,15.70
2017-12-22T06:46:28.566Z,22.00
2017-12-22T06:48:56.516Z,16.67
2017-12-22T06:51:23.971Z,26.52
2017-12-22T06:53:51.425Z,19.97
2017-12-22T06:56:19.094Z,21.97
2017-12-22T06:58:46.549Z,23.33
2017-12-22T07:01:14.014Z,13.97
2017-12-22T07:03:41.920Z,25.55
2017-12-22T07:06:09.390Z,17.83
2017-12-22T07:08:36.992Z,20.43
2017-12-22T07:11:04.902Z,18.00
2017-12-22T07:13:32.362Z,13.70
2017-12-22T07:15:59.827Z,14.73
2017-12-22T07:18:27.588Z,16.60
2017-12-22T07:20:55.052Z,11.50
2017-12-22T07:23:22.516Z,12.60
2017-12-22T07:25:50.269Z,18.80
2017-12-22T07:28:17.734Z,16.23
2017-12-22T07:30:45.204Z,11.10
2017-12-22T07:33:12.965Z,12.23
2017-12-22T07:35:40.425Z,15.57
2017-12-22T07:38:07.965Z,18.90
2017-12-22T07:40:35.681Z,14.20
2017-12-22T07:43:03.146Z,32.83
2017-12-22T07:45:30.610Z,21.73
2017-12-22T07:47:58.660Z,23.20
2017-12-22T07:50:26.121Z,16.07
2017-12-22T07:52:53.586Z,19.50
2017-12-22T07:55:21.548Z,28.93
2017-12-22T07:57:49.009Z,26.83
2017-12-22T08:00:16.468Z,21.83
2017-12-22T08:02:44.280Z,18.50
2017-12-22T08:05:11.741Z,22.77
2017-12-22T08:07:39.223Z,23.60
2017-12-22T08:10:07.005Z,34.27
2017-12-22T08:12:34.461Z,32.57
2017-12-22T08:15:02.409Z,28.70
2017-12-22T08:17:30.022Z,29.67
2017-12-22T08:19:57.475Z,27.97
2017-12-22T08:22:24.950Z,30.67
2017-12-22T08:24:52.993Z,32.30
2017-12-22T08:27:20.462Z,29.20
2017-12-22T08:29:47.929Z,34.17
2017-12-22T08:32:16.007Z,30.43
2017-12-22T08:34:43.473Z,48.47
2017-12-22T08:37:10.939Z,36.20
2017-12-22T08:39:39.621Z,27.37
2017-12-22T08:42:07.084Z,47.73
2017-12-22T08:44:34.542Z,36.90
2017-12-22T08:47:02.289Z,42.83
2017-12-22T08:49:29.777Z,49.03
2017-12-22T08:51:57.248Z,39.53
2017-12-22T08:54:24.881Z,32.20
2017-12-22T08:56:52.340Z,34.70
2017-12-22T08:59:19.802Z,43.60
2017-12-22T09:01:47.666Z,37.60
2017-12-22T09:04:15.117Z,42.83
2017-12-22T09:06:42.576Z,44.93
2017-12-22T09:09:10.337Z,37.43
2017-12-22T09:11:38.302Z,42.40
2017-12-22T09:14:05.755Z,46.60
2017-12-22T09:16:33.963Z,34.10
2017-12-22T09:19:01.454Z,35.67
2017-12-22T09:21:28.904Z,40.83
2017-12-22T09:23:56.974Z,45.97
2017-12-22T09:26:24.433Z,51.83
2017-12-22T09:28:52.603Z,42.27
2017-12-22T09:31:20.570Z,49.03
2017-12-22T09:33:48.020Z,54.17
2017-12-22T09:36:15.481Z,45.07
2017-12-22T09:38:43.272Z,51.80
2017-12-22T09:41:11.458Z,47.87
2017-12-22T09:43:38.938Z,56.40
2017-12-22T09:46:06.822Z,49.67
2017-12-22T09:48:34.360Z,53.90
2017-12-22T09:51:01.878Z,47.30
2017-12-22T09:53:30.167Z,66.73
2017-12-22T09:55:57.628Z,55.10
2017-12-22T09:58:25.139Z,82.77
2017-12-22T10:00:52.846Z,53.53
2017-12-22T10:03:20.306Z,50.47
2017-12-22T10:05:47.781Z,47.83
2017-12-22T10:08:15.834Z,50.30
2017-12-22T10:10:43.293Z,57.00
2017-12-22T10:13:10.748Z,61.03
2017-12-22T10:15:38.550Z,58.73
2017-12-22T10:18:06.008Z,51.80
2017-12-22T10:20:33.472Z,54.70
2017-12-22T10:23:01.106Z,51.50
2017-12-22T10:25:28.557Z,62.77
2017-12-22T10:27:56.028Z,62.40
2017-12-22T10:30:24.043Z,79.40
2017-12-22T10:32:51.507Z,77.20
2017-12-22T10:35:19.176Z,60.53
2017-12-22T10:37:46.893Z,65.50
2017-12-22T10:40:14.344Z,73.50
2017-12-22T10:42:42.193Z,76.53
2017-12-22T10:45:10.373Z,68.03
2017-12-22T10:47:38.009Z,86.10
2017-12-22T10:50:05.470Z,69.67
2017-12-22T10:52:33.203Z,68.70
2017-12-22T10:55:00.660Z,68.37
2017-12-22T10:57:28.225Z,74.57
2017-12-22T10:59:55.865Z,80.30
2017-12-22T11:02:23.325Z,72.10
2017-12-22T11:04:50.777Z,65.87
2017-12-22T11:07:18.555Z,67.83
2017-12-22T11:09:46.019Z,63.20
2017-12-22T11:12:13.487Z,60.40
2017-12-22T11:14:41.274Z,61.03
2017-12-22T11:17:09.503Z,50.30
2017-12-22T11:19:36.964Z,58.00
2017-12-22T11:22:04.808Z,47.63
2017-12-22T11:24:32.325Z,58.87
2017-12-22T11:27:00.136Z,56.20
2017-12-22T11:29:28.162Z,62.23
2017-12-22T11:31:55.620Z,62.33
2017-12-22T11:34:23.082Z,56.53
2017-12-22T11:36:51.156Z,58.30
2017-12-22T11:39:18.619Z,54.70
2017-12-22T11:41:46.072Z,63.10
2017-12-22T11:44:13.867Z,55.00
2017-12-22T11:46:41.358Z,61.23
2017-12-22T11:49:08.819Z,57.43
2017-12-22T11:51:36.842Z,67.40
2017-12-22T11:54:04.317Z,55.87
2017-12-22T11:56:31.785Z,64.43
2017-12-22T11:58:59.519Z,57.80
2017-12-22T12:01:26.985Z,58.53
2017-12-22T12:03:54.445Z,48.77
2017-12-22T12:06:22.261Z,59.43
2017-12-22T12:08:49.716Z,57.70
2017-12-22T12:11:17.176Z,53.53
2017-12-22T12:13:44.904Z,46.70
2017-12-22T12:16:12.366Z,45.60
2017-12-22T12:18:39.825Z,58.47
2017-12-22T12:21:07.581Z,38.80
2017-12-22T12:23:35.037Z,35.23
2017-12-22T12:26:02.497Z,36.53
2017-12-22T12:28:30.270Z,39.33
2017-12-22T12:30:57.739Z,39.90
2017-12-22T12:33:25.220Z,39.93
2017-12-22T12:35:52.961Z,48.25
2017-12-22T12:38:20.420Z,44.67
2017-12-22T12:40:47.887Z,36.97
2017-12-22T12:43:16.015Z,38.60
2017-12-22T12:45:43.991Z,36.50
2017-12-22T12:48:11.454Z,49.00
2017-12-22T12:50:39.214Z,37.93
2017-12-22T12:53:06.672Z,42.63
2017-12-22T12:55:34.129Z,47.00
2017-12-22T12:58:01.940Z,41.80
2017-12-22T13:00:29.393Z,43.60
2017-12-22T13:02:56.850Z,41.60
2017-12-22T13:05:24.943Z,37.97
2017-12-22T13:07:52.402Z,41.60
2017-12-22T13:10:19.863Z,35.03
2017-12-22T13:12:47.492Z,35.20
2017-12-22T13:15:14.944Z,33.73
2017-12-22T13:17:42.409Z,42.90
2017-12-22T13:20:10.315Z,41.13
2017-12-22T13:22:37.816Z,37.43
2017-12-22T13:25:05.562Z,39.80
2017-12-22T13:27:33.311Z,48.17
2017-12-22T13:30:00.765Z,40.03
2017-12-22T13:32:28.233Z,32.23
2017-12-22T13:34:55.956Z,38.97
2017-12-22T13:37:23.415Z,29.00
2017-12-22T13:39:50.882Z,35.57
2017-12-22T13:42:18.685Z,30.83
2017-12-22T13:44:46.187Z,29.10
2017-12-22T13:47:16.450Z,37.33
2017-12-22T13:49:44.186Z,36.70
2017-12-22T13:52:11.637Z,41.00
2017-12-22T13:54:39.364Z,35.77
2017-12-22T13:57:06.972Z,45.23
2017-12-22T13:59:34.443Z,38.70
2017-12-22T14:02:01.910Z,46.07
2017-12-22T14:04:29.820Z,32.90
2017-12-22T14:06:57.273Z,31.80
2017-12-22T14:09:24.733Z,36.10
2017-12-22T14:11:52.572Z,32.57
2017-12-22T14:14:20.042Z,39.03
2017-12-22T14:16:47.498Z,38.13
2017-12-22T14:19:15.505Z,28.90
2017-12-22T14:21:43.432Z,34.30
2017-12-22T14:24:10.877Z,35.00
2017-12-22T14:26:38.790Z,35.57
2017-12-22T14:29:06.250Z,38.07
2017-12-22T14:31:33.701Z,44.83
2017-12-22T14:34:01.518Z,40.63
2017-12-22T14:36:28.954Z,41.50
2017-12-22T14:38:56.420Z,35.10
2017-12-22T14:41:24.159Z,34.53
2017-12-22T14:43:51.614Z,33.53
2017-12-22T14:46:19.077Z,48.75
2017-12-22T14:48:47.461Z,49.97
2017-12-22T14:51:14.913Z,37.33
2017-12-22T14:53:42.369Z,33.00
2017-12-22T14:56:10.160Z,45.10
2017-12-22T14:58:37.621Z,34.67
2017-12-22T15:01:05.097Z,36.80
2017-12-22T15:03:32.819Z,34.60
2017-12-22T15:06:00.289Z,38.37
2017-12-22T15:08:27.756Z,38.10
2017-12-22T15:10:55.532Z,43.80
2017-12-22T15:13:23.004Z,37.73
2017-12-22T15:15:50.457Z,48.50
2017-12-22T15:18:18.224Z,42.40
2017-12-22T15:20:46.040Z,26.70
2017-12-22T15:23:13.494Z,39.97
2017-12-22T15:25:41.515Z,35.00
2017-12-22T15:28:08.969Z,30.13
2017-12-22T15:30:36.429Z,37.57
2017-12-22T15:33:04.203Z,44.07
2017-12-22T15:35:32.019Z,32.73
2017-12-22T15:37:59.479Z,36.60
2017-12-22T15:40:27.193Z,37.77
2017-12-22T15:42:54.649Z,38.97
2017-12-22T15:45:22.101Z,33.43
2017-12-22T15:47:49.842Z,42.30
2017-12-22T15:50:18.037Z,35.47
2017-12-22T15:52:45.509Z,103.07
2017-12-22T15:55:13.385Z,56.10
2017-12-22T15:57:40.840Z,38.23
2017-12-22T16:00:08.293Z,42.13
2017-12-22T16:02:36.192Z,41.27
2017-12-22T16:05:03.704Z,51.42
2017-12-22T16:07:32.130Z,36.87
2017-12-22T16:10:00.105Z,39.43
2017-12-22T16:12:27.560Z,45.70
2017-12-22T16:14:55.027Z,37.77
2017-12-22T16:17:23.393Z,41.33
2017-12-22T16:19:50.866Z,34.43
2017-12-22T16:22:18.329Z,36.37
2017-12-22T16:24:46.082Z,37.07
2017-12-22T16:27:13.545Z,36.50
2017-12-22T16:29:41.010Z,35.87
2017-12-22T16:32:08.777Z,36.30
2017-12-22T16:34:36.252Z,31.40
2017-12-22T16:37:03.728Z,36.97
2017-12-22T16:39:31.677Z,31.53
2017-12-22T16:41:59.141Z,31.13
2017-12-22T16:44:26.597Z,37.90
2017-12-22T16:46:54.462Z,38.53
2017-12-22T16:49:21.920Z,36.70
2017-12-22T16:51:50.066Z,29.93
2017-12-22T16:54:18.061Z,37.60
2017-12-22T16:56:45.528Z,39.30
2017-12-22T16:59:12.997Z,30.47
2017-12-22T17:01:41.357Z,38.60
2017-12-22T17:04:08.829Z,37.80
2017-12-22T17:06:36.286Z,36.53
2017-12-22T17:09:04.372Z,32.87
2017-12-22T17:11:31.838Z,35.93
2017-12-22T17:13:59.297Z,35.20
2017-12-22T17:16:27.054Z,31.50
2017-12-22T17:18:54.513Z,37.37
2017-12-22T17:21:21.973Z,27.87
2017-12-22T17:23:49.731Z,31.07
2017-12-22T17:26:17.185Z,44.47
2017-12-22T17:28:44.644Z,30.63
2017-12-22T17:31:12.418Z,31.00
2017-12-22T17:33:39.880Z,35.17
2017-12-22T17:36:07.341Z,37.67
2017-12-22T17:38:35.424Z,29.60
2017-12-22T17:41:02.886Z,31.67
2017-12-22T17:43:30.350Z,31.57
2017-12-22T17:45:58.402Z,30.60
2017-12-22T17:48:25.857Z,44.03
2017-12-22T17:50:53.314Z,34.23
2017-12-22T17:53:22.021Z,30.93
2017-12-22T17:55:49.476Z,26.10
2017-12-22T17:58:16.937Z,27.07
2017-12-22T18:00:44.721Z,23.83
2017-12-22T18:03:12.180Z,32.57
2017-12-22T18:05:39.977Z,35.33
2017-12-22T18:08:08.006Z,24.20
2017-12-22T18:10:35.685Z,29.93
2017-12-22T18:13:03.224Z,29.40
2017-12-22T18:15:31.003Z,28.87
2017-12-22T18:17:58.471Z,25.80
2017-12-22T18:20:25.922Z,24.40
2017-12-22T18:22:53.698Z,26.33
2017-12-22T18:25:21.158Z,22.60
2017-12-22T18:27:48.650Z,19.93
2017-12-22T18:30:16.692Z,24.03
2017-12-22T18:32:44.437Z,19.23
2017-12-22T18:35:11.890Z,23.20
2017-12-22T18:37:39.681Z,23.10
2017-12-22T18:40:07.144Z,25.47
2017-12-22T18:42:34.636Z,24.83
2017-12-22T18:45:02.432Z,22.70
2017-12-22T18:47:29.850Z,26.10
2017-12-22T18:49:57.551Z,18.20
2017-12-22T18:52:25.381Z,27.90
2017-12-22T18:54:53.210Z,16.97
2017-12-22T18:57:20.681Z,16.23
2017-12-22T18:59:48.661Z,17.30
2017-12-22T19:02:16.121Z,16.23
2017-12-22T19:04:43.665Z,14.67
2017-12-22T19:07:11.651Z,22.48
2017-12-22T19:09:39.118Z,18.13
2017-12-22T19:12:06.576Z,13.73
2017-12-22T19:14:34.335Z,21.77
2017-12-22T19:17:01.802Z,14.93
2017-12-22T19:19:29.271Z,20.37
2017-12-22T19:21:57.342Z,20.83
2017-12-22T19:24:24.796Z,25.13
2017-12-22T19:26:52.262Z,17.50
2017-12-22T19:29:19.899Z,20.27
2017-12-22T19:31:47.354Z,20.50
2017-12-22T19:34:14.817Z,16.47
2017-12-22T19:36:42.701Z,15.47
2017-12-22T19:39:10.189Z,15.90
2017-12-22T19:41:37.642Z,19.57
2017-12-22T19:44:05.398Z,19.03
2017-12-22T19:46:32.869Z,16.47
2017-12-22T19:49:00.338Z,15.70
2017-12-22T19:51:28.075Z,20.90
2017-12-22T19:53:55.528Z,14.67
2017-12-22T19:56:23.329Z,16.03
2017-12-22T19:58:51.081Z,10.97
2017-12-22T20:01:18.538Z,12.97
2017-12-22T20:03:46.007Z,14.17
2017-12-22T20:06:13.764Z,11.67
2017-12-22T20:08:41.228Z,13.77
2017-12-22T20:11:08.696Z,10.07
2017-12-22T20:13:36.748Z,11.37
2017-12-22T20:16:04.214Z,14.70
2017-12-22T20:18:31.678Z,12.17
2017-12-22T20:20:59.445Z,12.23
2017-12-22T20:23:26.897Z,12.27
2017-12-22T20:25:54.357Z,18.17
2017-12-22T20:28:22.156Z,14.70
2017-12-22T20:30:49.613Z,18.03
2017-12-22T20:33:17.065Z,12.40
2017-12-22T20:35:44.814Z,11.97
2017-12-22T20:38:12.262Z,12.07
2017-12-22T20:40:39.722Z,13.40
2017-12-22T20:43:07.305Z,29.90
2017-12-22T20:45:34.773Z,33.00
2017-12-22T20:48:02.233Z,18.40
2017-12-22T20:50:30.192Z,15.03
2017-12-22T20:52:57.655Z,15.33
2017-12-22T20:55:25.159Z,13.87
2017-12-22T20:57:53.512Z,17.40
2017-12-22T21:00:20.965Z,13.50
2017-12-22T21:02:48.425Z,12.80
2017-12-22T21:05:16.186Z,15.50
2017-12-22T21:07:43.642Z,14.77
2017-12-22T21:10:11.109Z,17.90
2017-12-22T21:12:38.847Z,13.93
2017-12-22T21:15:06.306Z,15.07
2017-12-22T21:17:33.777Z,15.03
2017-12-22T21:20:01.617Z,12.00
2017-12-22T21:22:29.087Z,10.97
2017-12-22T21:24:56.541Z,10.93
2017-12-22T21:27:24.247Z,9.30
2017-12-22T21:29:51.925Z,9.10
2017-12-22T21:32:19.372Z,9.83
2017-12-22T21:34:47.547Z,11.17
2017-12-22T21:37:15.005Z,11.20
2017-12-22T21:39:42.460Z,15.70
2017-12-22T21:42:11.154Z,13.77
2017-12-22T21:44:38.621Z,12.10
2017-12-22T21:47:06.096Z,11.20
2017-12-22T21:49:33.843Z,10.67
2017-12-22T21:52:01.315Z,12.90
2017-12-22T21:54:28.785Z,12.13
2017-12-22T21:56:56.832Z,10.90
2017-12-22T21:59:24.686Z,13.07
2017-12-22T22:01:52.141Z,11.67
2017-12-22T22:04:20.132Z,11.97
2017-12-22T22:06:47.583Z,10.90
2017-12-22T22:09:15.031Z,13.40
2017-12-22T22:11:43.049Z,11.77
2017-12-22T22:14:10.503Z,13.00
2017-12-22T22:16:37.953Z,12.83
2017-12-22T22:19:06.003Z,12.97
2017-12-22T22:21:33.460Z,13.10
2017-12-22T22:24:00.923Z,12.67
2017-12-22T22:26:28.812Z,13.30
2017-12-22T22:28:56.321Z,12.17
2017-12-22T22:31:23.777Z,17.83
2017-12-22T22:33:51.807Z,13.23
2017-12-22T22:36:19.271Z,11.37
2017-12-22T22:38:46.728Z,16.20
2017-12-22T22:41:14.490Z,13.27
2017-12-22T22:43:41.962Z,14.27
2017-12-22T22:46:09.518Z,16.80
2017-12-22T22:48:37.175Z,18.87
2017-12-22T22:51:04.641Z,13.80
2017-12-22T22:53:32.105Z,12.47
2017-12-22T22:55:59.826Z,14.50
2017-12-22T22:58:27.293Z,13.83
2017-12-22T23:00:55.385Z,14.93
2017-12-22T23:03:23.180Z,15.90
2017-12-22T23:05:50.631Z,14.07
2017-12-22T23:08:18.090Z,17.07
2017-12-22T23:10:45.857Z,15.60
2017-12-22T23:13:13.321Z,17.30
2017-12-22T23:15:40.778Z,16.17
2017-12-22T23:18:09.238Z,17.40
2017-12-22T23:20:36.693Z,16.33
2017-12-22T23:23:04.150Z,25.10
2017-12-22T23:25:31.836Z,14.60
2017-12-22T23:27:59.294Z,18.03
2017-12-22T23:30:26.749Z,18.13
2017-12-22T23:32:54.527Z,17.40
2017-12-22T23:35:21.985Z,15.27
2017-12-22T23:37:49.483Z,17.87
2017-12-22T23:40:17.214Z,18.97
2017-12-22T23:42:44.665Z,19.00
2017-12-22T23:45:12.125Z,24.37
2017-12-22T23:47:39.905Z,17.30
2017-12-22T23:50:07.359Z,16.80
2017-12-22T23:52:34.821Z,19.27
2017-12-22T23:55:02.592Z,16.40
2017-12-22T23:57:30.053Z,18.07
2017-12-22T23:59:57.514Z,18.53
